createdAt,value
2018-06-27T00:01:17.814Z,13.70
2018-06-27T00:03:46.456Z,13.70
2018-06-27T00:06:16.543Z,13.70
2018-06-27T00:11:15.254Z,13.80
2018-06-27T00:13:43.852Z,13.80
2018-06-27T00:16:12.511Z,13.70
2018-06-27T00:21:09.563Z,13.70
2018-06-27T00:23:38.103Z,13.70
2018-06-27T00:26:06.723Z,13.60
2018-06-27T00:28:35.240Z,13.60
2018-06-27T00:31:03.795Z,13.60
2018-06-27T00:33:32.377Z,13.60
2018-06-27T00:36:00.885Z,13.60
2018-06-27T00:40:57.734Z,13.60
2018-06-27T00:45:54.616Z,13.60
2018-06-27T00:48:23.155Z,13.50
2018-06-27T00:53:20.012Z,13.50
2018-06-27T00:55:48.560Z,13.50
2018-06-27T00:58:17.183Z,13.40
2018-06-27T01:00:45.832Z,13.40
2018-06-27T01:03:14.817Z,13.30
2018-06-27T01:05:43.391Z,13.30
2018-06-27T01:08:11.931Z,13.30
2018-06-27T01:10:40.625Z,13.30
2018-06-27T01:13:09.095Z,13.30
2018-06-27T01:15:37.652Z,13.20
2018-06-27T01:18:06.266Z,13.20
2018-06-27T01:20:34.797Z,13.20
2018-06-27T01:23:03.356Z,13.20
2018-06-27T01:25:31.910Z,13.20
2018-06-27T01:28:00.472Z,13.10
2018-06-27T01:30:29.023Z,13.10
2018-06-27T01:32:57.562Z,13.10
2018-06-27T01:40:22.718Z,13.00
2018-06-27T01:42:51.289Z,12.90
2018-06-27T01:45:19.855Z,12.80
2018-06-27T01:47:48.359Z,12.80
2018-06-27T01:50:17.940Z,12.70
2018-06-27T01:52:46.499Z,12.60
2018-06-27T01:55:16.247Z,12.50
2018-06-27T02:02:42.295Z,12.40
2018-06-27T02:05:10.848Z,12.40
2018-06-27T02:07:39.414Z,12.30
2018-06-27T02:10:08.009Z,12.20
2018-06-27T02:12:36.540Z,12.20
2018-06-27T02:17:33.457Z,12.10
2018-06-27T02:20:01.956Z,12.10
2018-06-27T02:22:30.520Z,12.10
2018-06-27T02:24:59.036Z,12.10
2018-06-27T02:27:27.638Z,12.10
2018-06-27T02:29:56.158Z,12.10
2018-06-27T02:32:24.764Z,12.10
2018-06-27T02:34:53.277Z,12.00
2018-06-27T02:37:21.836Z,12.00
2018-06-27T02:39:50.407Z,12.00
2018-06-27T02:42:18.979Z,11.90
2018-06-27T02:44:47.504Z,11.90
2018-06-27T02:47:17.362Z,11.80
2018-06-27T02:49:47.036Z,11.80
2018-06-27T02:52:16.540Z,11.70
2018-06-27T02:57:13.459Z,11.60
2018-06-27T02:59:42.019Z,11.60
2018-06-27T03:02:10.579Z,11.50
2018-06-27T03:04:39.158Z,11.50
2018-06-27T03:09:36.023Z,11.40
2018-06-27T03:12:04.580Z,11.50
2018-06-27T03:14:33.152Z,11.40
2018-06-27T03:17:01.734Z,11.50
2018-06-27T03:19:30.322Z,11.40
2018-06-27T03:21:58.876Z,11.40
2018-06-27T03:24:27.457Z,11.40
2018-06-27T03:26:55.996Z,11.40
2018-06-27T03:29:24.583Z,11.40
2018-06-27T03:31:53.255Z,11.40
2018-06-27T03:34:23.260Z,11.30
2018-06-27T03:36:52.829Z,11.30
2018-06-27T03:39:23.075Z,11.30
2018-06-27T03:41:52.346Z,11.30
2018-06-27T03:44:21.568Z,11.30
2018-06-27T03:46:51.640Z,11.30
2018-06-27T03:51:49.371Z,11.30
2018-06-27T03:54:17.898Z,11.40
2018-06-27T03:56:46.510Z,11.40
2018-06-27T03:59:15.040Z,11.40
2018-06-27T04:01:43.564Z,11.40
2018-06-27T04:06:40.351Z,11.30
2018-06-27T04:09:10.313Z,11.40
2018-06-27T04:11:39.272Z,11.40
2018-06-27T04:14:08.993Z,11.40
2018-06-27T04:16:37.590Z,11.40
2018-06-27T04:19:06.154Z,11.50
2018-06-27T04:21:34.703Z,11.50
2018-06-27T04:24:03.271Z,11.60
2018-06-27T04:29:00.075Z,12.00
2018-06-27T04:31:28.647Z,12.20
2018-06-27T04:33:57.252Z,12.40
2018-06-27T04:36:26.509Z,12.60
2018-06-27T04:38:55.084Z,12.80
2018-06-27T04:41:23.830Z,13.00
2018-06-27T04:43:52.535Z,13.10
2018-06-27T04:51:17.659Z,13.40
2018-06-27T04:53:46.169Z,13.50
2018-06-27T04:56:15.427Z,13.70
2018-06-27T04:58:44.340Z,13.70
2018-06-27T05:03:41.577Z,14.00
2018-06-27T05:06:10.267Z,14.30
2018-06-27T05:08:38.995Z,14.50
2018-06-27T05:13:35.933Z,14.90
2018-06-27T05:16:04.689Z,15.10
2018-06-27T05:18:33.180Z,15.30
2018-06-27T05:21:01.768Z,15.50
2018-06-27T05:23:30.294Z,15.60
2018-06-27T05:25:58.891Z,15.80
2018-06-27T05:28:27.444Z,16.00
2018-06-27T05:33:24.311Z,16.50
2018-06-27T05:35:54.352Z,16.60
2018-06-27T05:38:23.577Z,16.90
2018-06-27T05:40:52.199Z,17.00
2018-06-27T05:45:49.881Z,17.40
2018-06-27T05:50:46.759Z,17.60
2018-06-27T05:53:15.300Z,17.70
2018-06-27T05:55:43.872Z,17.90
2018-06-27T05:58:12.510Z,18.00
2018-06-27T06:00:41.231Z,18.10
2018-06-27T06:03:09.757Z,18.20
2018-06-27T06:08:11.168Z,18.40
2018-06-27T06:10:39.768Z,18.50
2018-06-27T06:13:08.319Z,18.60
2018-06-27T06:15:36.974Z,18.80
2018-06-27T06:20:33.955Z,19.00
2018-06-27T06:23:02.619Z,19.20
2018-06-27T06:25:31.215Z,19.30
2018-06-27T06:32:56.475Z,19.60
2018-06-27T06:35:26.131Z,19.70
2018-06-27T06:37:54.762Z,19.70
2018-06-27T06:40:23.983Z,19.80
2018-06-27T06:42:53.317Z,19.90
2018-06-27T06:45:22.632Z,20.10
2018-06-27T06:50:20.311Z,20.30
2018-06-27T06:52:48.880Z,20.30
2018-06-27T06:55:17.501Z,20.40
2018-06-27T06:57:46.061Z,20.50
2018-06-27T07:00:14.616Z,20.50
2018-06-27T07:02:44.313Z,20.70
2018-06-27T07:05:12.882Z,21.00
2018-06-27T07:07:41.526Z,21.20
2018-06-27T07:12:38.320Z,21.30
2018-06-27T07:15:06.926Z,21.40
2018-06-27T07:17:35.606Z,21.40
2018-06-27T07:20:04.303Z,21.40
2018-06-27T07:22:32.899Z,21.40
2018-06-27T07:25:01.597Z,21.40
2018-06-27T07:27:30.143Z,21.50
2018-06-27T07:32:28.176Z,21.40
2018-06-27T07:34:56.786Z,21.40
2018-06-27T07:37:25.413Z,21.50
2018-06-27T07:39:54.040Z,21.60
2018-06-27T07:42:22.622Z,21.70
2018-06-27T07:44:52.219Z,21.70
2018-06-27T07:47:21.891Z,21.80
2018-06-27T07:49:51.111Z,21.90
2018-06-27T07:52:20.877Z,22.00
2018-06-27T07:59:46.991Z,22.10
2018-06-27T08:02:15.630Z,22.20
2018-06-27T08:04:44.256Z,22.20
2018-06-27T08:07:12.875Z,21.90
2018-06-27T08:09:45.741Z,21.70
2018-06-27T08:12:18.761Z,21.60
2018-06-27T08:14:47.687Z,21.90
2018-06-27T08:17:17.681Z,22.30
2018-06-27T08:19:46.607Z,22.60
2018-06-27T08:22:16.545Z,22.80
2018-06-27T08:24:45.971Z,23.00
2018-06-27T08:27:15.554Z,22.90
2018-06-27T08:29:44.648Z,23.00
2018-06-27T08:32:13.921Z,23.20
2018-06-27T08:37:11.899Z,23.20
2018-06-27T08:39:40.613Z,23.30
2018-06-27T08:42:09.325Z,23.20
2018-06-27T08:44:38.116Z,23.30
2018-06-27T08:47:06.836Z,23.60
2018-06-27T08:49:35.514Z,23.50
2018-06-27T08:52:04.298Z,23.30
2018-06-27T08:57:06.037Z,23.90
2018-06-27T08:59:34.650Z,24.10
2018-06-27T09:04:31.776Z,24.50
2018-06-27T09:07:00.852Z,24.60
2018-06-27T09:09:30.035Z,24.80
2018-06-27T09:11:58.921Z,24.70
2018-06-27T09:14:27.997Z,24.10
2018-06-27T09:16:56.909Z,23.50
2018-06-27T09:19:25.532Z,23.00
2018-06-27T09:21:54.502Z,23.00
2018-06-27T09:24:23.250Z,22.90
2018-06-27T09:26:52.765Z,22.60
2018-06-27T09:29:22.128Z,22.50
2018-06-27T09:31:51.452Z,22.50
2018-06-27T09:36:49.445Z,23.00
2018-06-27T09:39:18.325Z,23.10
2018-06-27T09:41:47.237Z,23.10
2018-06-27T09:44:16.213Z,22.90
2018-06-27T09:46:45.078Z,22.90
2018-06-27T09:51:42.705Z,22.70
2018-06-27T09:54:11.575Z,22.80
2018-06-27T09:56:41.329Z,22.80
2018-06-27T09:59:11.152Z,22.70
2018-06-27T10:01:40.109Z,22.50
2018-06-27T10:04:08.882Z,22.40
2018-06-27T10:06:38.128Z,22.20
2018-06-27T10:09:10.132Z,22.10
2018-06-27T10:11:39.424Z,22.00
2018-06-27T10:14:08.227Z,22.00
2018-06-27T10:16:37.324Z,22.00
2018-06-27T10:19:06.023Z,21.90
2018-06-27T10:21:34.844Z,21.80
2018-06-27T10:24:03.958Z,21.80
2018-06-27T10:26:32.785Z,21.90
2018-06-27T10:29:01.828Z,22.00
2018-06-27T10:31:30.873Z,22.10
2018-06-27T10:33:59.743Z,22.10
2018-06-27T10:38:56.931Z,22.20
2018-06-27T10:41:27.299Z,22.30
2018-06-27T10:43:56.300Z,22.40
2018-06-27T10:46:25.256Z,22.50
2018-06-27T10:48:54.918Z,22.40
2018-06-27T10:51:24.188Z,22.40
2018-06-27T10:53:53.197Z,22.50
2018-06-27T10:56:22.033Z,22.60
2018-06-27T10:58:51.980Z,22.70
2018-06-27T11:01:21.336Z,22.90
2018-06-27T11:06:20.748Z,23.30
2018-06-27T11:08:49.733Z,23.30
2018-06-27T11:13:47.392Z,23.20
2018-06-27T11:16:16.561Z,23.00
2018-06-27T11:18:45.524Z,22.90
2018-06-27T11:21:14.272Z,22.80
2018-06-27T11:23:43.216Z,22.80
2018-06-27T11:26:12.496Z,22.90
2018-06-27T11:28:41.641Z,22.90
2018-06-27T11:31:12.670Z,22.90
2018-06-27T11:33:41.655Z,22.90
2018-06-27T11:36:10.599Z,22.90
2018-06-27T11:41:07.913Z,23.00
2018-06-27T11:43:36.628Z,23.20
2018-06-27T11:46:05.831Z,23.20
2018-06-27T11:48:34.835Z,23.30
2018-06-27T11:53:32.631Z,23.50
2018-06-27T11:56:01.664Z,23.50
2018-06-27T11:58:44.941Z,23.50
2018-06-27T12:01:14.573Z,23.50
2018-06-27T12:03:43.389Z,23.40
2018-06-27T12:06:12.071Z,23.30
2018-06-27T12:08:40.631Z,23.30
2018-06-27T12:13:37.670Z,23.40
2018-06-27T12:16:06.344Z,23.40
2018-06-27T12:18:34.938Z,23.30
2018-06-27T12:21:03.508Z,23.30
2018-06-27T12:23:32.073Z,23.40
2018-06-27T12:26:00.790Z,23.50
2018-06-27T12:28:29.666Z,23.60
2018-06-27T12:31:00.050Z,23.60
2018-06-27T12:33:28.703Z,23.50
2018-06-27T12:35:57.287Z,23.60
2018-06-27T12:40:54.317Z,23.60
2018-06-27T12:43:23.564Z,23.60
2018-06-27T12:48:21.588Z,23.70
2018-06-27T12:50:50.237Z,24.00
2018-06-27T12:55:47.244Z,24.60
2018-06-27T12:58:15.793Z,24.80
2018-06-27T13:00:44.452Z,24.90
2018-06-27T13:05:41.476Z,24.80
2018-06-27T13:08:10.055Z,24.60
2018-06-27T13:10:38.644Z,24.40
2018-06-27T13:13:07.209Z,24.20
2018-06-27T13:15:35.811Z,24.00
2018-06-27T13:18:04.697Z,23.80
2018-06-27T13:20:33.286Z,23.90
2018-06-27T13:23:01.845Z,24.20
2018-06-27T13:25:30.440Z,24.70
2018-06-27T13:27:59.075Z,25.00
2018-06-27T13:30:27.669Z,25.10
2018-06-27T13:32:56.239Z,25.20
2018-06-27T13:35:25.027Z,25.30
2018-06-27T13:40:23.375Z,25.40
2018-06-27T13:42:52.993Z,25.50
2018-06-27T13:45:21.957Z,25.50
2018-06-27T13:47:50.618Z,25.50
2018-06-27T13:50:19.253Z,25.50
2018-06-27T13:52:47.876Z,25.60
2018-06-27T13:57:44.964Z,25.60
2018-06-27T14:00:13.735Z,25.70
2018-06-27T14:02:42.360Z,25.90
2018-06-27T14:05:10.994Z,26.00
2018-06-27T14:10:07.976Z,26.00
2018-06-27T14:12:36.627Z,26.00
2018-06-27T14:15:05.376Z,26.00
2018-06-27T14:17:33.961Z,25.90
2018-06-27T14:20:02.719Z,25.80
2018-06-27T14:22:31.296Z,25.60
2018-06-27T14:24:59.945Z,25.50
2018-06-27T14:27:29.013Z,25.40
2018-06-27T14:29:57.620Z,25.20
2018-06-27T14:32:26.307Z,25.00
2018-06-27T14:34:55.697Z,24.80
2018-06-27T14:37:25.597Z,24.60
2018-06-27T14:39:55.160Z,24.50
2018-06-27T14:42:24.935Z,24.40
2018-06-27T14:44:54.800Z,24.40
2018-06-27T14:47:24.116Z,24.40
2018-06-27T14:49:53.572Z,24.50
2018-06-27T14:52:23.299Z,24.50
2018-06-27T14:54:53.245Z,24.50
2018-06-27T14:57:22.367Z,24.60
2018-06-27T14:59:50.987Z,24.90
2018-06-27T15:02:19.631Z,25.30
2018-06-27T15:04:48.333Z,25.40
2018-06-27T15:07:17.000Z,25.50
2018-06-27T15:09:45.708Z,25.50
2018-06-27T15:12:14.321Z,25.40
2018-06-27T15:14:42.862Z,25.30
2018-06-27T15:17:11.542Z,25.10
2018-06-27T15:19:40.245Z,24.90
2018-06-27T15:22:08.903Z,24.80
2018-06-27T15:24:37.449Z,24.60
2018-06-27T15:27:06.093Z,24.40
2018-06-27T15:29:34.700Z,24.20
2018-06-27T15:32:03.322Z,24.00
2018-06-27T15:34:31.955Z,23.90
2018-06-27T15:37:00.547Z,23.80
2018-06-27T15:41:57.530Z,23.80
2018-06-27T15:44:26.258Z,23.70
2018-06-27T15:46:55.013Z,23.70
2018-06-27T15:49:23.720Z,23.70
2018-06-27T15:51:52.973Z,23.80
2018-06-27T15:56:49.966Z,24.00
2018-06-27T15:59:18.573Z,24.10
2018-06-27T16:01:47.205Z,24.10
2018-06-27T16:06:44.087Z,24.00
2018-06-27T16:09:12.726Z,23.90
2018-06-27T16:11:41.471Z,23.80
2018-06-27T16:14:10.045Z,23.70
2018-06-27T16:16:38.728Z,23.60
2018-06-27T16:19:07.374Z,23.60
2018-06-27T16:21:36.012Z,23.60
2018-06-27T16:24:04.836Z,23.60
2018-06-27T16:26:33.475Z,23.60
2018-06-27T16:29:02.107Z,23.60
2018-06-27T16:31:30.789Z,23.60
2018-06-27T16:33:59.451Z,23.70
2018-06-27T16:36:28.086Z,23.60
2018-06-27T16:38:56.781Z,23.60
2018-06-27T16:41:26.901Z,23.60
2018-06-27T16:51:24.196Z,23.50
2018-06-27T16:56:22.990Z,23.50
2018-06-27T16:58:53.277Z,23.50
2018-06-27T17:01:22.184Z,23.50
2018-06-27T17:03:50.913Z,23.40
2018-06-27T17:06:19.954Z,23.40
2018-06-27T17:08:48.978Z,23.40
2018-06-27T17:11:17.945Z,23.40
2018-06-27T17:13:46.822Z,23.30
2018-06-27T17:16:15.564Z,23.30
2018-06-27T17:18:44.437Z,23.30
2018-06-27T17:21:13.509Z,23.40
2018-06-27T17:23:42.613Z,23.50
2018-06-27T17:26:11.595Z,23.50
2018-06-27T17:28:40.476Z,23.50
2018-06-27T17:31:10.443Z,23.40
2018-06-27T17:36:08.343Z,23.40
2018-06-27T17:38:37.378Z,23.40
2018-06-27T17:41:06.723Z,23.40
2018-06-27T17:43:36.132Z,23.30
2018-06-27T17:46:06.902Z,23.30
2018-06-27T17:48:35.596Z,23.30
2018-06-27T17:51:04.168Z,23.30
2018-06-27T17:53:32.802Z,23.20
2018-06-27T17:58:30.101Z,22.90
2018-06-27T18:00:58.770Z,22.80
2018-06-27T18:05:57.060Z,22.80
2018-06-27T18:10:55.141Z,22.60
2018-06-27T18:18:21.519Z,22.50
2018-06-27T18:20:50.105Z,22.40
2018-06-27T18:25:48.061Z,22.50
2018-06-27T18:28:16.705Z,22.40
2018-06-27T18:30:46.433Z,22.20
2018-06-27T18:33:15.151Z,22.10
2018-06-27T18:38:12.124Z,21.80
2018-06-27T18:40:40.649Z,21.60
2018-06-27T18:43:09.207Z,21.40
2018-06-27T18:45:43.366Z,21.30
2018-06-27T18:48:11.884Z,21.10
2018-06-27T18:53:08.896Z,20.90
2018-06-27T18:55:37.585Z,20.70
2018-06-27T18:58:07.306Z,20.60
2018-06-27T19:00:35.905Z,20.40
2018-06-27T19:03:04.733Z,20.20
2018-06-27T19:05:33.425Z,20.00
2018-06-27T19:08:02.100Z,19.80
2018-06-27T19:10:30.729Z,19.60
2018-06-27T19:12:59.360Z,19.50
2018-06-27T19:17:56.299Z,19.20
2018-06-27T19:20:25.063Z,19.00
2018-06-27T19:22:53.816Z,18.90
2018-06-27T19:25:22.442Z,18.70
2018-06-27T19:27:51.165Z,18.50
2018-06-27T19:30:20.580Z,18.40
2018-06-27T19:32:50.584Z,18.30
2018-06-27T19:35:20.129Z,18.10
2018-06-27T19:37:52.984Z,18.00
2018-06-27T19:40:23.065Z,17.90
2018-06-27T19:42:51.685Z,17.70
2018-06-27T19:45:20.807Z,17.60
2018-06-27T19:47:50.650Z,17.40
2018-06-27T19:50:20.292Z,17.30
2018-06-27T19:52:48.919Z,17.20
2018-06-27T19:55:18.598Z,17.10
2018-06-27T19:57:48.395Z,17.00
2018-06-27T20:00:18.165Z,16.80
2018-06-27T20:02:47.260Z,16.70
2018-06-27T20:05:16.110Z,16.60
2018-06-27T20:07:44.741Z,16.50
2018-06-27T20:10:13.547Z,16.40
2018-06-27T20:12:42.474Z,16.30
2018-06-27T20:15:11.215Z,16.20
2018-06-27T20:17:39.899Z,16.10
2018-06-27T20:20:08.866Z,16.00
2018-06-27T20:22:37.712Z,16.00
2018-06-27T20:27:34.893Z,15.90
2018-06-27T20:30:03.531Z,15.80
2018-06-27T20:32:32.127Z,15.80
2018-06-27T20:35:00.683Z,15.70
2018-06-27T20:37:29.349Z,15.60
2018-06-27T20:39:57.944Z,15.50
2018-06-27T20:42:26.507Z,15.50
2018-06-27T20:44:55.105Z,15.40
2018-06-27T20:47:23.684Z,15.40
2018-06-27T20:49:52.299Z,15.40
2018-06-27T20:52:20.905Z,15.40
2018-06-27T20:54:49.487Z,15.40
2018-06-27T20:57:18.164Z,15.40
2018-06-27T20:59:48.045Z,15.50
2018-06-27T21:02:17.386Z,15.50
2018-06-27T21:04:46.483Z,15.70
2018-06-27T21:07:15.844Z,15.80
2018-06-27T21:09:44.387Z,16.00
2018-06-27T21:12:12.964Z,16.20
2018-06-27T21:14:41.725Z,16.30
2018-06-27T21:17:10.331Z,16.40
2018-06-27T21:19:39.008Z,16.50
2018-06-27T21:22:07.624Z,16.50
2018-06-27T21:27:06.585Z,16.60
2018-06-27T21:29:35.241Z,16.60
2018-06-27T21:32:03.847Z,16.70
2018-06-27T21:37:00.826Z,16.70
2018-06-27T21:39:29.426Z,16.80
2018-06-27T21:41:58.038Z,16.70
2018-06-27T21:44:26.613Z,16.70
2018-06-27T21:46:55.210Z,16.70
2018-06-27T21:49:23.816Z,16.60
2018-06-27T21:54:20.855Z,16.40
2018-06-27T21:56:51.503Z,16.40
2018-06-27T21:59:20.296Z,16.30
2018-06-27T22:01:48.945Z,16.20
2018-06-27T22:04:18.322Z,16.30
2018-06-27T22:06:48.251Z,16.40
2018-06-27T22:09:18.297Z,16.40
2018-06-27T22:11:47.646Z,16.40
2018-06-27T22:14:16.835Z,16.40
2018-06-27T22:16:46.110Z,16.50
2018-06-27T22:19:14.755Z,16.50
2018-06-27T22:21:43.387Z,16.40
2018-06-27T22:24:11.979Z,16.40
2018-06-27T22:26:40.601Z,16.40
2018-06-27T22:29:09.194Z,16.40
2018-06-27T22:31:37.861Z,16.30
2018-06-27T22:34:06.469Z,16.30
2018-06-27T22:36:35.123Z,16.20
2018-06-27T22:39:05.743Z,16.20
2018-06-27T22:41:34.474Z,16.10
2018-06-27T22:44:03.237Z,16.20
2018-06-27T22:46:31.876Z,16.20
2018-06-27T22:49:00.458Z,16.20
2018-06-27T22:51:29.099Z,16.30
2018-06-27T22:53:57.688Z,16.40
2018-06-27T22:56:26.325Z,16.40
2018-06-27T22:58:54.912Z,16.40
2018-06-27T23:01:23.555Z,16.50
2018-06-27T23:03:52.148Z,16.50
2018-06-27T23:06:20.733Z,16.50
2018-06-27T23:08:49.335Z,16.50
2018-06-27T23:13:46.304Z,16.60
2018-06-27T23:16:15.354Z,16.60
2018-06-27T23:18:44.032Z,16.60
2018-06-27T23:21:12.627Z,16.70
2018-06-27T23:23:41.286Z,16.70
2018-06-27T23:26:09.885Z,16.70
2018-06-27T23:28:38.467Z,16.70
2018-06-27T23:31:07.053Z,16.70
2018-06-27T23:33:36.761Z,16.80
2018-06-27T23:36:05.652Z,16.80
2018-06-27T23:38:34.249Z,16.80
2018-06-27T23:41:02.805Z,16.80
2018-06-27T23:43:31.388Z,16.80
2018-06-27T23:45:59.947Z,16.90
2018-06-27T23:48:28.539Z,16.90
2018-06-27T23:50:57.092Z,16.90
2018-06-27T23:55:53.966Z,16.90
2018-06-27T23:58:22.584Z,16.90
